createdAt,value
2022-10-28T00:01:04.126Z,11.30
2022-10-28T00:03:34.263Z,11.40
2022-10-28T00:06:06.668Z,11.50
2022-10-28T00:08:35.351Z,11.50
2022-10-28T00:11:07.879Z,11.40
2022-10-28T00:13:36.566Z,11.30
2022-10-28T00:16:10.474Z,11.40
2022-10-28T00:18:40.658Z,11.40
2022-10-28T00:21:10.635Z,11.50
2022-10-28T00:23:38.655Z,11.60
2022-10-28T00:26:09.070Z,11.60
2022-10-28T00:28:40.761Z,11.60
2022-10-28T00:31:10.283Z,11.70
2022-10-28T00:33:39.676Z,11.60
2022-10-28T00:36:16.456Z,11.70
2022-10-28T00:38:46.254Z,11.70
2022-10-28T00:41:16.894Z,11.70
2022-10-28T00:43:46.806Z,11.60
2022-10-28T00:46:24.156Z,11.60
2022-10-28T00:48:58.430Z,11.70
2022-10-28T00:51:27.872Z,11.70
2022-10-28T00:53:57.164Z,11.70
2022-10-28T00:56:27.322Z,11.70
2022-10-28T00:59:00.532Z,11.70
2022-10-28T01:01:28.648Z,11.60
2022-10-28T01:03:59.308Z,11.60
2022-10-28T01:06:29.504Z,11.60
2022-10-28T01:08:59.988Z,11.60
2022-10-28T01:11:41.470Z,11.60
2022-10-28T01:14:23.373Z,11.60
2022-10-28T01:17:23.600Z,11.50
2022-10-28T01:20:41.629Z,11.40
2022-10-28T01:23:20.255Z,11.20
2022-10-28T01:26:21.707Z,11.20
2022-10-28T01:29:28.543Z,11.10
2022-10-28T01:32:00.126Z,11.00
2022-10-28T01:34:32.736Z,10.90
2022-10-28T01:37:06.741Z,11.00
2022-10-28T01:39:38.927Z,11.00
2022-10-28T01:42:18.338Z,11.00
2022-10-28T01:44:53.179Z,11.20
2022-10-28T01:47:26.783Z,11.20
2022-10-28T01:50:01.908Z,11.30
2022-10-28T01:52:32.821Z,11.20
2022-10-28T01:55:05.684Z,11.30
2022-10-28T01:57:37.001Z,11.10
2022-10-28T02:00:06.074Z,11.00
2022-10-28T02:02:38.223Z,10.80
2022-10-28T02:05:27.866Z,10.80
2022-10-28T02:08:00.689Z,10.70
2022-10-28T02:10:37.077Z,10.80
2022-10-28T02:13:11.845Z,10.80
2022-10-28T02:15:46.609Z,10.70
2022-10-28T02:18:27.287Z,10.60
2022-10-28T02:21:00.067Z,10.60
2022-10-28T02:23:40.918Z,10.50
2022-10-28T02:26:15.020Z,10.60
2022-10-28T02:28:49.487Z,10.60
2022-10-28T02:31:24.301Z,10.50
2022-10-28T02:33:56.135Z,10.50
2022-10-28T02:36:26.479Z,10.50
2022-10-28T02:38:57.463Z,10.60
2022-10-28T02:41:30.840Z,10.60
2022-10-28T02:44:03.866Z,10.60
2022-10-28T02:46:33.826Z,10.60
2022-10-28T02:49:06.504Z,10.60
2022-10-28T02:51:38.628Z,10.60
2022-10-28T02:54:10.561Z,10.60
2022-10-28T02:56:42.343Z,10.50
2022-10-28T02:59:12.312Z,10.40
2022-10-28T03:01:40.802Z,10.40
2022-10-28T03:04:10.413Z,10.40
2022-10-28T03:06:38.443Z,10.30
2022-10-28T03:09:06.401Z,10.30
2022-10-28T03:11:34.367Z,10.20
2022-10-28T03:14:02.494Z,10.20
2022-10-28T03:16:30.450Z,10.10
2022-10-28T03:18:58.691Z,10.00
2022-10-28T03:21:28.039Z,10.00
2022-10-28T03:23:56.104Z,10.20
2022-10-28T03:26:24.026Z,10.20
2022-10-28T03:28:52.171Z,10.20
2022-10-28T03:31:20.153Z,10.40
2022-10-28T03:33:48.094Z,10.40
2022-10-28T03:36:16.030Z,10.50
2022-10-28T03:38:45.326Z,10.50
2022-10-28T03:41:13.281Z,10.40
2022-10-28T03:43:41.202Z,10.20
2022-10-28T03:46:09.189Z,10.20
2022-10-28T03:48:37.147Z,10.10
2022-10-28T03:51:05.297Z,10.10
2022-10-28T03:53:33.263Z,10.10
2022-10-28T03:56:03.323Z,10.10
2022-10-28T03:58:31.438Z,10.10
2022-10-28T04:00:59.444Z,10.10
2022-10-28T04:03:27.648Z,10.10
2022-10-28T04:05:55.569Z,10.10
2022-10-28T04:08:23.561Z,10.10
2022-10-28T04:10:51.571Z,10.10
2022-10-28T04:13:20.877Z,10.10
2022-10-28T04:15:48.855Z,10.10
2022-10-28T04:18:16.776Z,10.10
2022-10-28T04:20:46.319Z,10.20
2022-10-28T04:23:18.280Z,10.30
2022-10-28T04:25:46.667Z,10.30
2022-10-28T04:28:14.609Z,10.30
2022-10-28T04:30:43.878Z,10.40
2022-10-28T04:33:13.253Z,10.40
2022-10-28T04:35:43.112Z,10.40
2022-10-28T04:38:11.259Z,10.30
2022-10-28T04:40:39.468Z,10.30
2022-10-28T04:43:09.789Z,10.40
2022-10-28T04:45:38.721Z,10.40
2022-10-28T04:48:09.671Z,10.50
2022-10-28T04:50:37.700Z,10.50
2022-10-28T04:53:05.679Z,10.40
2022-10-28T04:55:33.640Z,10.40
2022-10-28T04:58:02.321Z,10.40
2022-10-28T05:00:31.393Z,10.50
2022-10-28T05:03:03.719Z,10.60
2022-10-28T05:05:32.993Z,10.50
2022-10-28T05:08:01.222Z,10.50
2022-10-28T05:10:29.936Z,10.40
2022-10-28T05:12:57.862Z,10.50
2022-10-28T05:15:26.579Z,10.50
2022-10-28T05:17:55.255Z,10.40
2022-10-28T05:20:23.456Z,10.50
2022-10-28T05:22:55.139Z,10.50
2022-10-28T05:25:24.332Z,10.30
2022-10-28T05:27:52.595Z,10.20
2022-10-28T05:30:21.288Z,10.10
2022-10-28T05:32:51.587Z,10.10
2022-10-28T05:35:22.440Z,10.10
2022-10-28T05:37:50.414Z,10.10
2022-10-28T05:40:19.773Z,10.10
2022-10-28T05:42:47.703Z,10.00
2022-10-28T05:45:16.079Z,10.00
2022-10-28T05:47:45.158Z,10.00
2022-10-28T05:50:13.966Z,10.10
2022-10-28T05:52:45.909Z,10.20
2022-10-28T05:55:13.903Z,10.20
2022-10-28T05:57:43.226Z,10.30
2022-10-28T06:00:12.736Z,10.40
2022-10-28T06:02:40.987Z,10.50
2022-10-28T06:05:09.712Z,10.50
2022-10-28T06:07:38.626Z,10.60
2022-10-28T06:10:08.467Z,10.60
2022-10-28T06:12:34.939Z,10.70
2022-10-28T06:15:05.107Z,10.70
2022-10-28T06:17:33.039Z,10.70
2022-10-28T06:20:01.062Z,10.80
2022-10-28T06:22:28.992Z,10.90
2022-10-28T06:24:56.962Z,10.90
2022-10-28T06:27:24.951Z,10.90
2022-10-28T06:29:52.887Z,10.90
2022-10-28T06:32:22.174Z,11.00
2022-10-28T06:34:50.077Z,11.00
2022-10-28T06:37:18.197Z,10.80
2022-10-28T06:39:49.795Z,10.80
2022-10-28T06:42:17.917Z,10.80
2022-10-28T06:44:45.914Z,10.80
2022-10-28T06:47:15.362Z,11.00
2022-10-28T06:49:44.658Z,11.10
2022-10-28T06:52:12.642Z,11.20
2022-10-28T06:54:40.628Z,11.40
2022-10-28T06:57:08.552Z,11.40
2022-10-28T06:59:36.622Z,11.50
2022-10-28T07:02:05.300Z,11.60
2022-10-28T07:04:34.675Z,11.60
2022-10-28T07:07:04.218Z,11.70
2022-10-28T07:09:33.534Z,11.80
2022-10-28T07:12:04.768Z,11.90
2022-10-28T07:14:34.765Z,12.00
2022-10-28T07:17:02.830Z,12.10
2022-10-28T07:19:30.769Z,12.20
2022-10-28T07:21:58.722Z,12.30
2022-10-28T07:27:00.964Z,12.40
2022-10-28T07:29:28.949Z,12.50
2022-10-28T07:31:57.437Z,12.60
2022-10-28T07:34:27.263Z,12.60
2022-10-28T07:36:56.416Z,12.70
2022-10-28T07:39:24.441Z,12.80
2022-10-28T07:41:53.901Z,12.90
2022-10-28T07:44:21.903Z,13.00
2022-10-28T07:46:53.070Z,13.10
2022-10-28T07:49:23.841Z,13.20
2022-10-28T07:51:52.089Z,13.30
2022-10-28T07:54:20.038Z,13.40
2022-10-28T07:56:48.001Z,13.50
2022-10-28T07:59:17.280Z,13.60
2022-10-28T08:01:45.340Z,13.60
2022-10-28T08:04:13.410Z,13.70
2022-10-28T08:06:41.424Z,13.80
2022-10-28T08:09:09.720Z,13.90
2022-10-28T08:11:37.676Z,14.00
2022-10-28T08:14:05.677Z,14.00
2022-10-28T08:16:34.982Z,14.10
2022-10-28T08:19:07.456Z,14.20
2022-10-28T08:21:35.867Z,14.20
2022-10-28T08:24:03.823Z,14.30
2022-10-28T08:26:31.755Z,14.30
2022-10-28T08:29:01.508Z,14.40
2022-10-28T08:31:29.477Z,14.60
2022-10-28T08:33:58.751Z,14.60
2022-10-28T08:36:26.713Z,14.70
2022-10-28T08:38:54.690Z,14.80
2022-10-28T08:41:32.365Z,14.90
2022-10-28T08:44:14.209Z,15.00
2022-10-28T08:46:55.247Z,15.10
2022-10-28T08:49:25.828Z,15.20
2022-10-28T08:51:58.924Z,15.30
2022-10-28T08:54:43.517Z,15.40
2022-10-28T08:57:18.310Z,15.60
2022-10-28T08:59:47.938Z,15.80
2022-10-28T09:02:23.622Z,15.90
2022-10-28T09:04:59.204Z,16.00
2022-10-28T09:07:27.161Z,16.00
2022-10-28T09:09:56.142Z,16.00
2022-10-28T09:12:38.221Z,16.10
2022-10-28T09:15:20.412Z,16.10
2022-10-28T09:17:54.764Z,16.10
2022-10-28T09:20:32.843Z,16.10
2022-10-28T09:23:06.864Z,16.10
2022-10-28T09:25:48.647Z,16.20
2022-10-28T09:28:31.274Z,16.20
2022-10-28T09:31:07.579Z,16.20
2022-10-28T09:33:47.294Z,16.10
2022-10-28T09:36:22.610Z,16.20
2022-10-28T09:38:55.082Z,16.20
2022-10-28T09:41:26.625Z,16.30
2022-10-28T09:43:58.378Z,16.30
2022-10-28T09:46:33.327Z,16.30
2022-10-28T09:49:06.987Z,16.40
2022-10-28T09:51:44.902Z,16.40
2022-10-28T09:54:13.802Z,16.50
2022-10-28T09:56:42.586Z,16.50
2022-10-28T09:59:15.516Z,16.50
2022-10-28T10:01:45.797Z,16.60
2022-10-28T10:04:19.318Z,16.70
2022-10-28T10:06:52.993Z,16.70
2022-10-28T10:09:25.793Z,16.80
2022-10-28T10:11:56.890Z,17.00
2022-10-28T10:14:30.972Z,17.20
2022-10-28T10:17:03.853Z,17.40
2022-10-28T10:20:00.103Z,17.40
2022-10-28T10:22:33.618Z,17.80
2022-10-28T10:25:02.106Z,18.00
2022-10-28T10:27:31.623Z,18.10
2022-10-28T10:30:00.384Z,18.10
2022-10-28T10:32:31.626Z,18.10
2022-10-28T10:35:03.155Z,18.10
2022-10-28T10:37:35.810Z,18.00
2022-10-28T10:40:14.143Z,18.00
2022-10-28T10:42:51.688Z,18.00
2022-10-28T10:45:30.067Z,18.00
2022-10-28T10:48:13.205Z,18.00
2022-10-28T10:50:41.956Z,18.30
2022-10-28T10:53:21.151Z,18.60
2022-10-28T10:55:55.537Z,18.80
2022-10-28T10:58:26.019Z,18.90
2022-10-28T11:00:56.147Z,19.00
2022-10-28T11:03:28.951Z,19.10
2022-10-28T11:06:22.594Z,19.00
2022-10-28T11:08:48.229Z,19.30
2022-10-28T11:11:21.184Z,19.40
2022-10-28T11:14:03.254Z,19.50
2022-10-28T11:16:31.336Z,19.50
2022-10-28T11:18:59.293Z,19.70
2022-10-28T11:21:51.387Z,19.70
2022-10-28T11:24:49.092Z,19.70
2022-10-28T11:27:26.863Z,19.60
2022-10-28T11:29:55.722Z,19.40
2022-10-28T11:33:01.679Z,19.40
2022-10-28T11:35:43.945Z,19.50
2022-10-28T11:38:27.905Z,19.70
2022-10-28T11:41:15.645Z,19.90
2022-10-28T11:43:54.845Z,20.00
2022-10-28T11:46:37.710Z,20.10
2022-10-28T11:49:34.552Z,20.20
2022-10-28T11:52:15.314Z,20.30
2022-10-28T11:54:53.809Z,20.30
2022-10-28T11:57:33.451Z,20.20
2022-10-28T12:00:23.303Z,20.10
2022-10-28T12:03:11.104Z,20.20
2022-10-28T12:05:44.897Z,20.20
2022-10-28T12:08:36.580Z,20.20
2022-10-28T12:11:22.519Z,20.20
2022-10-28T12:13:58.586Z,20.20
2022-10-28T12:16:34.176Z,20.20
2022-10-28T12:19:06.469Z,20.20
2022-10-28T12:21:37.035Z,20.20
2022-10-28T12:24:11.652Z,20.10
2022-10-28T12:26:42.129Z,20.10
2022-10-28T12:29:18.672Z,20.10
2022-10-28T12:31:50.068Z,20.00
2022-10-28T12:34:23.481Z,19.90
2022-10-28T12:36:59.506Z,19.90
2022-10-28T12:39:32.549Z,19.90
2022-10-28T12:42:04.881Z,19.90
2022-10-28T12:44:37.452Z,19.90
2022-10-28T12:47:15.413Z,20.00
2022-10-28T12:49:53.588Z,19.90
2022-10-28T12:52:31.553Z,19.90
2022-10-28T12:55:04.251Z,19.70
2022-10-28T12:57:35.973Z,19.60
2022-10-28T13:00:15.959Z,19.50
2022-10-28T13:02:49.969Z,19.40
2022-10-28T13:05:21.824Z,19.50
2022-10-28T13:08:07.209Z,19.50
2022-10-28T13:10:43.816Z,19.50
2022-10-28T13:13:27.729Z,19.60
2022-10-28T13:16:27.144Z,19.60
2022-10-28T13:19:25.259Z,19.40
2022-10-28T13:22:14.645Z,19.40
2022-10-28T13:24:52.185Z,19.40
2022-10-28T13:27:22.542Z,19.40
2022-10-28T13:29:54.624Z,19.30
2022-10-28T13:32:37.479Z,19.10
2022-10-28T13:35:14.976Z,19.00
2022-10-28T13:37:46.823Z,18.90
2022-10-28T13:40:24.562Z,18.80
2022-10-28T13:42:52.847Z,18.70
2022-10-28T13:45:48.408Z,18.70
2022-10-28T13:48:49.241Z,18.60
2022-10-28T13:51:48.243Z,18.50
2022-10-28T13:54:28.023Z,18.50
2022-10-28T13:57:03.841Z,18.50
2022-10-28T13:59:41.199Z,18.50
2022-10-28T14:02:34.977Z,18.50
2022-10-28T14:05:07.651Z,18.40
2022-10-28T14:07:37.468Z,18.40
2022-10-28T14:10:22.433Z,18.30
2022-10-28T14:12:55.488Z,18.20
2022-10-28T14:15:29.947Z,18.20
2022-10-28T14:18:15.830Z,18.20
2022-10-28T14:20:58.909Z,18.10
2022-10-28T14:24:16.098Z,18.00
2022-10-28T14:27:26.845Z,18.00
2022-10-28T14:30:19.805Z,18.00
2022-10-28T14:33:12.286Z,17.90
2022-10-28T14:35:43.329Z,17.80
2022-10-28T14:38:49.734Z,17.80
2022-10-28T14:41:41.498Z,17.70
2022-10-28T14:44:20.147Z,17.70
2022-10-28T14:47:03.891Z,17.60
2022-10-28T14:49:33.810Z,17.60
2022-10-28T14:52:08.726Z,17.50
2022-10-28T14:54:40.827Z,17.50
2022-10-28T14:57:11.373Z,17.40
2022-10-28T14:59:43.191Z,17.40
2022-10-28T15:02:15.277Z,17.30
2022-10-28T15:04:45.435Z,17.30
2022-10-28T15:07:15.508Z,17.20
2022-10-28T15:09:44.803Z,17.00
2022-10-28T15:12:17.552Z,17.10
2022-10-28T15:14:50.763Z,17.10
2022-10-28T15:17:21.299Z,17.00
2022-10-28T15:19:51.119Z,16.90
2022-10-28T15:22:22.728Z,16.80
2022-10-28T15:24:55.210Z,16.80
2022-10-28T15:27:25.712Z,16.70
2022-10-28T15:29:54.134Z,16.60
2022-10-28T15:32:33.225Z,16.60
2022-10-28T15:35:21.394Z,16.50
2022-10-28T15:37:49.379Z,16.40
2022-10-28T15:40:22.893Z,16.30
2022-10-28T15:42:58.152Z,16.30
2022-10-28T15:45:28.773Z,16.20
2022-10-28T15:47:57.976Z,16.20
2022-10-28T15:50:30.201Z,16.20
2022-10-28T15:53:23.591Z,16.10
2022-10-28T15:56:23.539Z,16.10
2022-10-28T15:59:11.677Z,16.10
2022-10-28T16:01:40.720Z,16.00
2022-10-28T16:04:46.015Z,15.90
2022-10-28T16:07:14.119Z,15.90
2022-10-28T16:09:47.872Z,15.80
2022-10-28T16:12:18.397Z,15.80
2022-10-28T16:14:50.714Z,15.80
2022-10-28T16:17:23.045Z,15.70
2022-10-28T16:19:54.464Z,15.70
2022-10-28T16:22:23.903Z,15.60
2022-10-28T16:24:53.540Z,15.60
2022-10-28T16:27:24.253Z,15.50
2022-10-28T16:29:54.079Z,15.50
2022-10-28T16:32:27.739Z,15.40
2022-10-28T16:34:57.085Z,15.30
2022-10-28T16:37:27.353Z,15.30
2022-10-28T16:39:55.631Z,15.30
2022-10-28T16:42:23.952Z,15.20
2022-10-28T16:44:53.474Z,15.20
2022-10-28T16:47:25.601Z,15.10
2022-10-28T16:49:57.206Z,15.10
2022-10-28T16:52:28.528Z,15.10
2022-10-28T16:54:57.586Z,15.00
2022-10-28T16:57:26.284Z,15.00
2022-10-28T16:59:55.778Z,15.00
2022-10-28T17:02:27.645Z,15.00
2022-10-28T17:04:55.709Z,14.90
2022-10-28T17:07:23.786Z,14.80
2022-10-28T17:09:52.011Z,14.90
2022-10-28T17:12:21.990Z,14.90
2022-10-28T17:14:50.182Z,14.80
2022-10-28T17:17:19.711Z,14.80
2022-10-28T17:19:47.651Z,14.70
2022-10-28T17:22:15.695Z,14.70
2022-10-28T17:24:43.614Z,14.70
2022-10-28T17:27:12.910Z,14.70
2022-10-28T17:29:40.992Z,14.60
2022-10-28T17:32:09.431Z,14.60
2022-10-28T17:34:38.821Z,14.50
2022-10-28T17:37:07.870Z,14.50
2022-10-28T17:39:35.932Z,14.50
2022-10-28T17:42:04.343Z,14.50
2022-10-28T17:44:32.330Z,14.50
2022-10-28T17:47:00.306Z,14.40
2022-10-28T17:49:28.234Z,14.40
2022-10-28T17:51:57.544Z,14.40
2022-10-28T17:54:25.579Z,14.40
2022-10-28T17:56:53.515Z,14.30
2022-10-28T17:59:21.466Z,14.30
2022-10-28T18:01:49.518Z,14.30
2022-10-28T18:04:17.576Z,14.30
2022-10-28T18:06:45.539Z,14.30
2022-10-28T18:09:15.056Z,14.20
2022-10-28T18:11:42.993Z,14.20
2022-10-28T18:14:10.924Z,14.20
2022-10-28T18:16:39.360Z,14.10
2022-10-28T18:19:08.752Z,14.10
2022-10-28T18:21:36.969Z,14.10
2022-10-28T18:24:05.501Z,14.00
2022-10-28T18:26:36.470Z,14.00
2022-10-28T18:29:05.419Z,14.00
2022-10-28T18:31:34.269Z,14.00
2022-10-28T18:34:03.572Z,14.00
2022-10-28T18:36:34.836Z,13.90
2022-10-28T18:39:03.183Z,13.90
2022-10-28T18:41:32.490Z,13.90
2022-10-28T18:44:03.002Z,13.90
2022-10-28T18:46:33.519Z,13.80
2022-10-28T18:51:35.452Z,13.80
2022-10-28T18:54:03.654Z,13.80
2022-10-28T18:56:34.129Z,13.80
2022-10-28T18:59:05.737Z,13.80
2022-10-28T19:01:34.423Z,13.80
2022-10-28T19:04:04.206Z,13.80
2022-10-28T19:06:34.117Z,13.70
2022-10-28T19:09:04.162Z,13.70
2022-10-28T19:11:33.543Z,13.70
2022-10-28T19:14:02.843Z,13.60
2022-10-28T19:16:34.160Z,13.60
2022-10-28T19:19:04.326Z,13.60
2022-10-28T19:21:32.538Z,13.60
2022-10-28T19:24:01.004Z,13.60
2022-10-28T19:26:30.335Z,13.60
2022-10-28T19:28:58.280Z,13.60
2022-10-28T19:31:27.906Z,13.60
2022-10-28T19:33:57.598Z,13.50
2022-10-28T19:36:27.026Z,13.50
2022-10-28T19:38:55.858Z,13.50
2022-10-28T19:41:25.198Z,13.50
2022-10-28T19:43:57.879Z,13.50
2022-10-28T19:46:27.720Z,13.50
2022-10-28T19:48:59.095Z,13.50
2022-10-28T19:51:29.066Z,13.50
2022-10-28T19:53:58.275Z,13.50
2022-10-28T19:56:26.953Z,13.50
2022-10-28T19:58:57.035Z,13.40
2022-10-28T20:01:27.119Z,13.50
2022-10-28T20:03:56.159Z,13.40
2022-10-28T20:06:27.711Z,13.40
2022-10-28T20:08:55.640Z,13.40
2022-10-28T20:11:26.600Z,13.40
2022-10-28T20:13:56.356Z,13.40
2022-10-28T20:16:25.482Z,13.40
2022-10-28T20:18:54.757Z,13.40
2022-10-28T20:21:26.038Z,13.40
2022-10-28T20:23:55.744Z,13.40
2022-10-28T20:26:25.406Z,13.40
2022-10-28T20:28:53.406Z,13.40
2022-10-28T20:31:22.953Z,13.30
2022-10-28T20:33:53.518Z,13.30
2022-10-28T20:36:27.723Z,13.30
2022-10-28T20:38:56.219Z,13.30
2022-10-28T20:41:24.871Z,13.30
2022-10-28T20:43:53.352Z,13.30
2022-10-28T20:46:22.042Z,13.30
2022-10-28T20:48:50.376Z,13.30
2022-10-28T20:51:18.375Z,13.20
2022-10-28T20:53:47.715Z,13.20
2022-10-28T20:56:20.730Z,13.20
2022-10-28T20:58:48.721Z,13.20
2022-10-28T21:01:19.343Z,13.20
2022-10-28T21:03:47.701Z,13.10
2022-10-28T21:06:17.623Z,13.10
2022-10-28T21:08:47.247Z,13.10
2022-10-28T21:11:16.920Z,13.10
2022-10-28T21:13:46.749Z,13.00
2022-10-28T21:16:14.782Z,13.00
2022-10-28T21:18:42.732Z,13.10
2022-10-28T21:21:12.064Z,13.00
2022-10-28T21:23:40.061Z,12.90
2022-10-28T21:26:11.525Z,12.90
2022-10-28T21:28:41.367Z,12.90
2022-10-28T21:31:11.084Z,12.90
2022-10-28T21:33:40.448Z,12.90
2022-10-28T21:36:11.774Z,12.90
2022-10-28T21:38:39.735Z,12.90
2022-10-28T21:41:12.663Z,12.90
2022-10-28T21:43:42.899Z,12.90
2022-10-28T21:46:11.810Z,12.90
2022-10-28T21:48:40.457Z,12.90
2022-10-28T21:51:13.553Z,12.90
2022-10-28T21:53:43.810Z,12.90
2022-10-28T21:56:17.584Z,12.90
2022-10-28T21:58:47.384Z,12.90
2022-10-28T22:01:17.240Z,12.90
2022-10-28T22:03:45.284Z,12.90
2022-10-28T22:06:13.440Z,13.00
2022-10-28T22:08:41.377Z,12.90
2022-10-28T22:11:13.490Z,12.90
2022-10-28T22:13:41.777Z,13.00
2022-10-28T22:16:12.572Z,12.90
2022-10-28T22:18:40.596Z,13.00
2022-10-28T22:21:11.180Z,13.00
2022-10-28T22:23:39.326Z,13.00
2022-10-28T22:26:08.884Z,12.90
2022-10-28T22:28:38.718Z,13.00
2022-10-28T22:31:09.245Z,13.00
2022-10-28T22:33:37.787Z,13.00
2022-10-28T22:36:07.603Z,12.90
2022-10-28T22:38:35.595Z,12.90
2022-10-28T22:41:04.612Z,12.90
2022-10-28T22:43:32.900Z,12.90
2022-10-28T22:46:02.520Z,12.90
2022-10-28T22:48:31.121Z,12.90
2022-10-28T22:50:59.858Z,12.80
2022-10-28T22:53:28.102Z,12.90
2022-10-28T22:55:56.998Z,12.90
2022-10-28T22:58:26.054Z,12.90
2022-10-28T23:00:53.968Z,12.90
2022-10-28T23:03:23.262Z,12.90
2022-10-28T23:05:51.181Z,12.90
2022-10-28T23:08:19.113Z,12.90
2022-10-28T23:10:47.064Z,12.90
2022-10-28T23:13:15.013Z,12.80
2022-10-28T23:15:42.929Z,12.80
2022-10-28T23:18:10.881Z,12.90
2022-10-28T23:20:40.201Z,12.90
2022-10-28T23:23:08.197Z,12.80
2022-10-28T23:25:36.172Z,12.90
2022-10-28T23:28:06.478Z,12.90
2022-10-28T23:30:34.431Z,12.80
2022-10-28T23:33:02.456Z,12.90
2022-10-28T23:35:30.409Z,12.90
2022-10-28T23:38:01.319Z,12.80
2022-10-28T23:40:29.311Z,12.90
2022-10-28T23:42:57.952Z,12.90
2022-10-28T23:45:26.201Z,12.90
2022-10-28T23:47:54.124Z,12.80
2022-10-28T23:50:22.085Z,12.90
2022-10-28T23:52:54.918Z,12.80
2022-10-28T23:55:24.429Z,12.80
2022-10-28T23:57:52.692Z,12.80
